Kirishima Maru No.5 — JD2506 — position and weather

sailwx.info

Track history (hours):
 
Tides and Currents Weather Stations Pressure Air Temp Water Temp Dewpoint Dewpoint Depression Visibility Wind Speed Wind Dir Waves Ship Positions

Kirishima Maru No.5

Last reported at 2016-May-02 16:25 UTC. Time now 2016-May-03 20:03 UTC.
Position N 35°51' E 140°59'.

Length 105 m; draft 5.3 m.

Type: Tanker. MMSI: 431000338.

Date/timePositionNaut miles runAvg speedWind from/ knotsBaromVisibWave heightAir tempDewpointWater temp
2016-May-02 16:25N 35°51' E 140°59'2614.1
2016-May-02 14:33N 35°27' E 140°46'1615.9
2016-May-02 13:33N 35°14' E 140°34'1914.9
2016-May-02 12:16N 35°01' E 140°18'1114.7
2016-May-02 11:33N 34°56' E 140°06'1613.5
2016-May-02 10:21N 34°54' E 139°46'1213.8
2016-May-02 09:31N 35°05' E 139°44'1313.2
2016-May-02 08:33N 35°18' E 139°44'1312.6
2016-May-02 07:34N 35°30' E 139°47'2 1.6
2016-May-02 06:31N 35°31' E 139°46'0 0.0
2016-May-02 05:31N 35°31' E 139°46'0 0.0
2016-May-02 04:31N 35°31' E 139°46'0 0.0
2016-May-02 03:31N 35°31' E 139°46'0 0.0
2016-May-02 02:25N 35°31' E 139°46'0 0.0
2016-May-02 01:31N 35°31' E 139°46'0 0.0
2016-May-02 00:31N 35°31' E 139°46'1 0.7
2016-May-01 23:33N 35°30' E 139°46'6 6.4
2016-May-01 22:33N 35°24' E 139°45'0 0.0
2016-May-01 21:33N 35°24' E 139°45'0 0.0
2016-May-01 20:33N 35°24' E 139°45'0 0.0
2016-May-01 19:33N 35°24' E 139°45'0 0.0
2016-May-01 18:33N 35°24' E 139°45'0 0.0
2016-May-01 17:33N 35°24' E 139°45'0 0.0
2016-May-01 16:33N 35°24' E 139°45'0 0.0
2016-May-01 15:33N 35°24' E 139°45'0 0.0
2016-May-01 14:33N 35°24' E 139°45'0 0.0
2016-May-01 13:33N 35°24' E 139°45'0 0.0
2016-May-01 12:33N 35°24' E 139°45'0 0.1
2016-May-01 11:33N 35°24' E 139°45'0 0.0
2016-May-01 10:33N 35°24' E 139°45'0 0.0
2016-May-01 09:33N 35°24' E 139°45'0 0.0
2016-May-01 08:33N 35°24' E 139°45'0 0.0
2016-May-01 07:33N 35°24' E 139°45'0 0.0
2016-May-01 06:33N 35°24' E 139°45'0 0.0
2016-May-01 05:33N 35°24' E 139°45'2 1.7
2016-May-01 04:33N 35°22' E 139°44'1211.9
2016-May-01 03:33N 35°11' E 139°47'1413.5
2016-May-01 02:34N 34°57' E 139°43'1211.4
2016-May-01 01:29N 34°53' E 139°57'1212.8
2016-May-01 00:33N 34°59' E 140°10'2912.8
2016-Apr-30 22:15N 35°18' E 140°37'912.9
2016-Apr-30 21:33N 35°25' E 140°44'3012.9
2016-Apr-30 19:13N 35°53' E 140°59'14 0.3
2016-Apr-28 22:03N 35°39' E 140°57'1214.8
2016-Apr-28 21:15N 35°29' E 140°48'1115.1
2016-Apr-28 20:30N 35°21' E 140°40'1514.5
2016-Apr-28 19:28N 35°09' E 140°28'1213.6
2016-Apr-28 18:33N 35°00' E 140°17'1413.4
2016-Apr-28 17:31N 34°53' E 140°03'1513.2
2016-Apr-28 16:24N 34°47' E 139°47'24211.6
2016-Apr-27 19:33N 34°05' E 134°58'1614.3
2016-Apr-27 18:26N 34°21' E 134°60'1314.6
2016-Apr-27 17:33N 34°34' E 135°02'6 0.2
2016-Apr-26 09:14N 34°36' E 134°55'710.6
2016-Apr-26 08:33N 34°36' E 135°04'1211.9
2016-Apr-26 07:33N 34°24' E 135°02'1212.3
2016-Apr-26 06:32N 34°12' E 134°59'17710.7
2016-Apr-25 14:04N 34°30' E 138°32'6414.1
2016-Apr-25 09:32N 34°47' E 139°47'1514.1
2016-Apr-25 08:29N 34°54' E 140°03'1313.2
2016-Apr-25 07:31N 35°00' E 140°17'1712.3
2016-Apr-25 06:06N 35°12' E 140°32'1013.5
2016-Apr-25 05:20N 35°21' E 140°40'1113.6
2016-Apr-25 04:33N 35°29' E 140°48'8013.4
2016-Apr-24 22:33N 36°48' E 141°04'2 0.1
2016-Apr-24 00:22N 36°46' E 141°04'6613.7
2016-Apr-23 19:33N 35°40' E 140°58'1515.1
2016-Apr-23 18:33N 35°28' E 140°47'1715.1
2016-Apr-23 17:25N 35°14' E 140°34'1416.7
2016-Apr-23 16:33N 35°03' E 140°23'1515.0
2016-Apr-23 15:33N 34°56' E 140°07'1613.9
2016-Apr-23 14:25N 34°53' E 139°48'1213.5
2016-Apr-23 13:33N 35°04' E 139°44'1313.2
2016-Apr-23 12:33N 35°17' E 139°45'1212.0
2016-Apr-23 11:33N 35°29' E 139°47'3 2.4
2016-Apr-23 10:31N 35°31' E 139°46'0 0.0
2016-Apr-23 09:31N 35°31' E 139°46'0 0.0
2016-Apr-23 08:28N 35°31' E 139°46'0 0.0
2016-Apr-23 07:31N 35°31' E 139°46'0 0.0
2016-Apr-23 06:31N 35°31' E 139°46'0 0.0
2016-Apr-23 05:31N 35°31' E 139°46'0 0.0
2016-Apr-23 04:28N 35°31' E 139°46'0 0.3
2016-Apr-23 03:34N 35°31' E 139°46'5 4.9
2016-Apr-23 02:34N 35°26' E 139°44'9 9.2
2016-Apr-23 01:34N 35°17' E 139°45'1212.3
2016-Apr-23 00:33N 35°05' E 139°45'18 9.2
2016-Apr-22 22:33N 34°55' E 140°04'1413.6
2016-Apr-22 21:33N 35°03' E 140°18'1512.4
2016-Apr-22 20:18N 35°14' E 140°31'1012.6
2016-Apr-22 19:32N 35°21' E 140°39'2713.1
2016-Apr-22 17:28N 35°44' E 140°57'  
Track history (hours):
 
Tides and Currents Weather Stations Pressure Air Temp Water Temp Dewpoint Dewpoint Depression Visibility Wind Speed Wind Dir Waves Ship Positions

Kirishima Maru No.5

Last reported at 2016-May-02 16:25 UTC. Time now 2016-May-03 20:03 UTC.
Position N 35°51' E 140°59'.

Length 105 m; draft 5.3 m.

Type: Tanker. MMSI: 431000338.

Date/timePositionNaut miles runAvg speedWind from/ knotsBaromVisibWave heightAir tempDewpointWater temp
2016-May-02 16:25N 35°51' E 140°59'2614.1
2016-May-02 14:33N 35°27' E 140°46'1615.9
2016-May-02 13:33N 35°14' E 140°34'1914.9
2016-May-02 12:16N 35°01' E 140°18'1114.7
2016-May-02 11:33N 34°56' E 140°06'1613.5
2016-May-02 10:21N 34°54' E 139°46'1213.8
2016-May-02 09:31N 35°05' E 139°44'1313.2
2016-May-02 08:33N 35°18' E 139°44'1312.6
2016-May-02 07:34N 35°30' E 139°47'2 1.6
2016-May-02 06:31N 35°31' E 139°46'0 0.0
2016-May-02 05:31N 35°31' E 139°46'0 0.0
2016-May-02 04:31N 35°31' E 139°46'0 0.0
2016-May-02 03:31N 35°31' E 139°46'0 0.0
2016-May-02 02:25N 35°31' E 139°46'0 0.0
2016-May-02 01:31N 35°31' E 139°46'0 0.0
2016-May-02 00:31N 35°31' E 139°46'1 0.7
2016-May-01 23:33N 35°30' E 139°46'6 6.4
2016-May-01 22:33N 35°24' E 139°45'0 0.0
2016-May-01 21:33N 35°24' E 139°45'0 0.0
2016-May-01 20:33N 35°24' E 139°45'0 0.0
2016-May-01 19:33N 35°24' E 139°45'0 0.0
2016-May-01 18:33N 35°24' E 139°45'0 0.0
2016-May-01 17:33N 35°24' E 139°45'0 0.0
2016-May-01 16:33N 35°24' E 139°45'0 0.0
2016-May-01 15:33N 35°24' E 139°45'0 0.0
2016-May-01 14:33N 35°24' E 139°45'0 0.0
2016-May-01 13:33N 35°24' E 139°45'0 0.0
2016-May-01 12:33N 35°24' E 139°45'0 0.1
2016-May-01 11:33N 35°24' E 139°45'0 0.0
2016-May-01 10:33N 35°24' E 139°45'0 0.0
2016-May-01 09:33N 35°24' E 139°45'0 0.0
2016-May-01 08:33N 35°24' E 139°45'0 0.0
2016-May-01 07:33N 35°24' E 139°45'0 0.0
2016-May-01 06:33N 35°24' E 139°45'0 0.0
2016-May-01 05:33N 35°24' E 139°45'2 1.7
2016-May-01 04:33N 35°22' E 139°44'1211.9
2016-May-01 03:33N 35°11' E 139°47'1413.5
2016-May-01 02:34N 34°57' E 139°43'1211.4
2016-May-01 01:29N 34°53' E 139°57'1212.8
2016-May-01 00:33N 34°59' E 140°10'2912.8
2016-Apr-30 22:15N 35°18' E 140°37'912.9
2016-Apr-30 21:33N 35°25' E 140°44'3012.9
2016-Apr-30 19:13N 35°53' E 140°59'14 0.3
2016-Apr-28 22:03N 35°39' E 140°57'1214.8
2016-Apr-28 21:15N 35°29' E 140°48'1115.1
2016-Apr-28 20:30N 35°21' E 140°40'1514.5
2016-Apr-28 19:28N 35°09' E 140°28'1213.6
2016-Apr-28 18:33N 35°00' E 140°17'1413.4
2016-Apr-28 17:31N 34°53' E 140°03'1513.2
2016-Apr-28 16:24N 34°47' E 139°47'24211.6
2016-Apr-27 19:33N 34°05' E 134°58'1614.3
2016-Apr-27 18:26N 34°21' E 134°60'1314.6
2016-Apr-27 17:33N 34°34' E 135°02'6 0.2
2016-Apr-26 09:14N 34°36' E 134°55'710.6
2016-Apr-26 08:33N 34°36' E 135°04'1211.9
2016-Apr-26 07:33N 34°24' E 135°02'1212.3
2016-Apr-26 06:32N 34°12' E 134°59'17710.7
2016-Apr-25 14:04N 34°30' E 138°32'6414.1
2016-Apr-25 09:32N 34°47' E 139°47'1514.1
2016-Apr-25 08:29N 34°54' E 140°03'1313.2
2016-Apr-25 07:31N 35°00' E 140°17'1712.3
2016-Apr-25 06:06N 35°12' E 140°32'1013.5
2016-Apr-25 05:20N 35°21' E 140°40'1113.6
2016-Apr-25 04:33N 35°29' E 140°48'8013.4
2016-Apr-24 22:33N 36°48' E 141°04'2 0.1
2016-Apr-24 00:22N 36°46' E 141°04'6613.7
2016-Apr-23 19:33N 35°40' E 140°58'1515.1
2016-Apr-23 18:33N 35°28' E 140°47'1715.1
2016-Apr-23 17:25N 35°14' E 140°34'1416.7
2016-Apr-23 16:33N 35°03' E 140°23'1515.0
2016-Apr-23 15:33N 34°56' E 140°07'1613.9
2016-Apr-23 14:25N 34°53' E 139°48'1213.5
2016-Apr-23 13:33N 35°04' E 139°44'1313.2
2016-Apr-23 12:33N 35°17' E 139°45'1212.0
2016-Apr-23 11:33N 35°29' E 139°47'3 2.4
2016-Apr-23 10:31N 35°31' E 139°46'0 0.0
2016-Apr-23 09:31N 35°31' E 139°46'0 0.0
2016-Apr-23 08:28N 35°31' E 139°46'0 0.0
2016-Apr-23 07:31N 35°31' E 139°46'0 0.0
2016-Apr-23 06:31N 35°31' E 139°46'0 0.0
2016-Apr-23 05:31N 35°31' E 139°46'0 0.0
2016-Apr-23 04:28N 35°31' E 139°46'0 0.3
2016-Apr-23 03:34N 35°31' E 139°46'5 4.9
2016-Apr-23 02:34N 35°26' E 139°44'9 9.2
2016-Apr-23 01:34N 35°17' E 139°45'1212.3
2016-Apr-23 00:33N 35°05' E 139°45'18 9.2
2016-Apr-22 22:33N 34°55' E 140°04'1413.6
2016-Apr-22 21:33N 35°03' E 140°18'1512.4
2016-Apr-22 20:18N 35°14' E 140°31'1012.6
2016-Apr-22 19:32N 35°21' E 140°39'2713.1
2016-Apr-22 17:28N 35°44' E 140°57'  

Dump ship's entire track history